Time;durP1;ratioP1;P1;durP2;ratioP2;P2;SDS_P1;SDS_P2;PMS_P1;PMS_P2;Temp;Humidity;BMP_temperature;BMP_pressure;BME280_temperature;BME280_humidity;BME280_pressure;Samples;Min_cycle;Max_cycle;Signal;HPM_P1;HPM_P2
2021/08/09 00:01:39;;;;;;;2.45;0.80;;;21.50;88.80;;;;;;4929362;29;20032;-74
2021/08/09 00:04:05;;;;;;;3.58;1.33;;;21.50;88.80;;;;;;4931889;29;20023;-74
2021/08/09 00:06:31;;;;;;;3.00;1.13;;;21.50;88.80;;;;;;4928071;29;20090;-74
2021/08/09 00:08:59;;;;;;;4.30;0.80;;;21.50;88.70;;;;;;4927026;29;20495;-74
2021/08/09 00:11:24;;;;;;;6.35;1.27;;;21.50;88.70;;;;;;4919774;29;20050;-74
2021/08/09 00:13:50;;;;;;;4.15;1.02;;;21.50;88.70;;;;;;4931545;29;20355;-75
2021/08/09 00:16:16;;;;;;;3.50;1.00;;;21.50;88.60;;;;;;4930066;29;20110;-75
2021/08/09 00:18:45;;;;;;;2.40;0.85;;;21.40;88.60;;;;;;4912123;28;20098;-76
2021/08/09 00:21:11;;;;;;;3.60;1.00;;;21.40;88.50;;;;;;4912604;28;20043;-75
2021/08/09 00:23:36;;;;;;;4.65;1.02;;;21.40;88.50;;;;;;4928055;29;20023;-74
2021/08/09 00:26:02;;;;;;;1.80;0.70;;;21.40;88.40;;;;;;4930854;29;20036;-79
2021/08/09 00:28:28;;;;;;;4.78;1.48;;;21.40;88.40;;;;;;4930848;29;20040;-75
2021/08/09 00:30:53;;;;;;;4.22;1.05;;;21.40;88.40;;;;;;4912101;29;20024;-76
2021/08/09 00:33:19;;;;;;;2.10;0.85;;;21.40;88.30;;;;;;4925007;28;20110;-74
2021/08/09 00:35:44;;;;;;;3.53;0.95;;;21.40;88.20;;;;;;4914218;29;20032;-76
2021/08/09 00:38:10;;;;;;;4.10;0.90;;;21.40;88.10;;;;;;4925852;29;20047;-74
2021/08/09 00:40:36;;;;;;;4.35;1.27;;;21.40;88.10;;;;;;4921987;29;20053;-76
2021/08/09 00:43:02;;;;;;;3.95;1.23;;;21.40;88.10;;;;;;4926702;29;20086;-77
2021/08/09 00:45:28;;;;;;;3.90;1.38;;;21.40;88.10;;;;;;4911226;29;20118;-74
2021/08/09 00:47:54;;;;;;;2.60;0.90;;;21.40;88.00;;;;;;4911762;28;20196;-77
2021/08/09 00:50:20;;;;;;;3.80;1.00;;;21.40;88.00;;;;;;4911955;28;20400;-76
2021/08/09 00:52:46;;;;;;;3.05;0.80;;;21.40;87.90;;;;;;4920260;28;20040;-74
2021/08/09 00:55:12;;;;;;;4.07;1.05;;;21.40;87.90;;;;;;4928588;29;20032;-74
2021/08/09 00:57:39;;;;;;;4.40;1.00;;;21.40;87.90;;;;;;4930866;29;20034;-73
2021/08/09 01:00:05;;;;;;;3.40;1.00;;;21.30;87.80;;;;;;4930500;28;20510;-74
2021/08/09 01:02:31;;;;;;;3.95;1.35;;;21.30;87.70;;;;;;4926807;29;20032;-74
2021/08/09 01:04:59;;;;;;;2.20;0.80;;;21.30;87.60;;;;;;4930752;29;20032;-73
2021/08/09 01:07:30;;;;;;;3.63;1.05;;;21.30;87.60;;;;;;4923652;29;20044;-74
2021/08/09 01:10:29;;;;;;;4.20;1.38;;;21.30;87.50;;;;;;4932515;29;20115;-73
2021/08/09 01:13:01;;;;;;;4.72;1.40;;;21.30;87.50;;;;;;4935655;28;20040;-72
2021/08/09 01:15:31;;;;;;;4.05;1.10;;;21.30;87.50;;;;;;4934411;28;20492;-73
2021/08/09 01:18:01;;;;;;;3.53;1.15;;;21.30;87.40;;;;;;4917820;28;20502;-73
2021/08/09 01:20:44;;;;;;;2.97;1.00;;;21.30;87.40;;;;;;4934256;29;20099;-73
2021/08/09 01:23:15;;;;;;;3.55;1.27;;;21.30;87.40;;;;;;4934161;29;20036;-72
2021/08/09 01:26:18;;;;;;;3.10;0.90;;;21.30;87.30;;;;;;4933468;29;20102;-73
2021/08/09 01:28:45;;;;;;;3.17;1.00;;;21.30;87.30;;;;;;4914835;29;20531;-74
2021/08/09 01:31:13;;;;;;;3.90;1.25;;;21.30;87.30;;;;;;4930515;29;20049;-74
2021/08/09 01:33:39;;;;;;;2.78;1.13;;;21.30;87.20;;;;;;4914645;28;20024;-73
2021/08/09 01:36:06;;;;;;;5.40;1.00;;;21.30;87.20;;;;;;4914786;29;20032;-74
2021/08/09 01:38:33;;;;;;;2.58;0.85;;;21.20;87.10;;;;;;4922425;29;20039;-73
2021/08/09 01:41:00;;;;;;;2.75;0.80;;;21.30;87.20;;;;;;4931130;28;20027;-73
2021/08/09 01:43:26;;;;;;;3.42;1.17;;;21.30;87.20;;;;;;4921312;29;21319;-75
2021/08/09 01:45:54;;;;;;;3.95;0.95;;;21.30;87.80;;;;;;4933763;29;20043;-75
2021/08/09 01:48:20;;;;;;;2.53;1.05;;;21.20;87.00;;;;;;4922254;28;20479;-73
2021/08/09 01:50:46;;;;;;;4.30;0.88;;;21.20;87.00;;;;;;4923187;29;20035;-73
2021/08/09 01:53:12;;;;;;;3.95;0.85;;;21.20;87.00;;;;;;4933913;29;20555;-73
2021/08/09 01:55:38;;;;;;;3.78;1.50;;;21.20;86.90;;;;;;4933209;29;20036;-75
2021/08/09 01:58:04;;;;;;;3.42;1.10;;;21.20;86.90;;;;;;4929919;29;20016;-74
2021/08/09 02:00:30;;;;;;;3.17;1.35;;;21.20;86.90;;;;;;4926052;29;20449;-74
2021/08/09 02:02:56;;;;;;;3.97;1.05;;;21.20;86.90;;;;;;4914645;28;20028;-73
2021/08/09 02:05:23;;;;;;;3.90;1.05;;;21.20;86.90;;;;;;4914429;28;20047;-73
2021/08/09 02:07:50;;;;;;;2.60;1.10;;;21.20;86.90;;;;;;4925889;28;20418;-73
2021/08/09 02:10:20;;;;;;;5.15;1.33;;;21.20;86.80;;;;;;4927577;29;20487;-75
2021/08/09 02:13:11;;;;;;;3.42;0.75;;;21.20;86.80;;;;;;4921827;29;20028;-73
2021/08/09 02:16:01;;;;;;;3.63;1.00;;;21.20;86.70;;;;;;4914108;29;20046;-73
2021/08/09 02:18:44;;;;;;;2.67;1.00;;;21.10;86.70;;;;;;4926887;29;20040;-74
2021/08/09 02:21:14;;;;;;;2.38;0.90;;;21.20;86.70;;;;;;4916480;29;20111;-73
2021/08/09 02:23:57;;;;;;;2.35;0.80;;;21.20;86.70;;;;;;4913930;29;20496;-73
2021/08/09 02:26:37;;;;;;;3.15;0.90;;;21.10;86.60;;;;;;4914542;29;20537;-73
2021/08/09 02:29:07;;;;;;;3.20;1.00;;;21.10;86.70;;;;;;4933356;29;20173;-74
2021/08/09 02:31:36;;;;;;;3.08;1.00;;;21.10;86.60;;;;;;4930785;29;20055;-73
2021/08/09 02:34:02;;;;;;;3.42;0.88;;;21.10;86.60;;;;;;4932809;29;20407;-73
2021/08/09 02:36:28;;;;;;;2.20;0.98;;;21.10;87.30;;;;;;4931228;28;20529;-73
2021/08/09 02:38:56;;;;;;;5.05;1.80;;;21.10;86.60;;;;;;4926132;29;20036;-73
2021/08/09 02:41:22;;;;;;;4.10;0.98;;;21.10;86.60;;;;;;4931094;29;20028;-73
2021/08/09 02:43:48;;;;;;;5.07;1.00;;;21.10;86.60;;;;;;4918836;29;20039;-73
2021/08/09 02:46:14;;;;;;;2.95;0.77;;;21.10;87.30;;;;;;4913915;29;20550;-72
2021/08/09 02:48:41;;;;;;;3.83;1.00;;;21.10;86.50;;;;;;4913746;28;20036;-73
2021/08/09 02:51:10;;;;;;;3.00;1.15;;;21.10;86.60;;;;;;4913604;29;20032;-74
2021/08/09 02:53:36;;;;;;;4.55;0.95;;;21.10;86.50;;;;;;4913710;29;20028;-74
2021/08/09 02:56:02;;;;;;;1.45;0.73;;;21.10;86.50;;;;;;4913794;28;20358;-73
2021/08/09 02:58:28;;;;;;;3.13;1.02;;;21.10;86.50;;;;;;4929839;29;20035;-73
2021/08/09 03:00:56;;;;;;;2.80;0.90;;;21.00;86.50;;;;;;4931828;29;20031;-73
2021/08/09 03:03:23;;;;;;;1.85;0.77;;;21.10;86.50;;;;;;4932703;28;20035;-73
2021/08/09 03:05:53;;;;;;;4.25;0.85;;;21.00;86.40;;;;;;4931822;28;20416;-73
2021/08/09 03:08:19;;;;;;;2.08;0.70;;;21.10;86.50;;;;;;4917868;29;20063;-73
2021/08/09 03:10:47;;;;;;;3.38;1.00;;;21.00;87.20;;;;;;4930686;29;20027;-75
2021/08/09 03:13:12;;;;;;;1.90;0.95;;;21.10;86.50;;;;;;4923439;28;20036;-74
2021/08/09 03:15:38;;;;;;;3.75;0.82;;;21.10;86.50;;;;;;4928962;29;20077;-73
2021/08/09 03:18:04;;;;;;;3.50;1.17;;;21.00;86.40;;;;;;4930760;29;20044;-73
2021/08/09 03:20:30;;;;;;;3.53;0.95;;;21.00;86.40;;;;;;4922193;29;20024;-75
2021/08/09 03:22:56;;;;;;;2.50;0.82;;;21.00;86.40;;;;;;4913775;29;20032;-73
2021/08/09 03:25:22;;;;;;;2.70;0.88;;;21.00;86.40;;;;;;4919506;29;20086;-74
2021/08/09 03:27:47;;;;;;;2.80;0.90;;;21.00;86.40;;;;;;4926690;29;20044;-74
2021/08/09 03:30:13;;;;;;;2.85;1.00;;;21.00;86.40;;;;;;4930892;29;20028;-73
2021/08/09 03:32:39;;;;;;;3.30;1.13;;;21.00;86.50;;;;;;4931931;29;20403;-74
2021/08/09 03:35:05;;;;;;;2.40;0.90;;;21.00;87.20;;;;;;4931852;29;20067;-73
2021/08/09 03:37:30;;;;;;;3.53;0.80;;;21.00;86.40;;;;;;4926165;29;20042;-74
2021/08/09 03:39:56;;;;;;;3.40;1.08;;;21.00;86.40;;;;;;4920261;29;20395;-75
2021/08/09 03:42:23;;;;;;;2.88;0.85;;;21.00;86.40;;;;;;4914547;29;20032;-74
2021/08/09 03:44:49;;;;;;;3.08;0.82;;;21.00;86.40;;;;;;4931808;29;20443;-76
2021/08/09 03:47:15;;;;;;;4.18;1.05;;;21.00;86.40;;;;;;4932152;29;20537;-72
2021/08/09 03:49:40;;;;;;;2.00;0.85;;;21.00;86.40;;;;;;4931505;29;20036;-74
2021/08/09 03:52:06;;;;;;;3.20;1.00;;;21.00;86.40;;;;;;4913147;29;20054;-73
2021/08/09 03:54:31;;;;;;;2.50;0.60;;;21.00;86.40;;;;;;4924226;28;20035;-73
2021/08/09 03:56:57;;;;;;;1.83;0.57;;;21.00;86.40;;;;;;4930017;29;20026;-74
2021/08/09 03:59:23;;;;;;;1.58;0.70;;;20.90;86.30;;;;;;4930494;29;20047;-73
2021/08/09 04:01:49;;;;;;;3.25;1.02;;;21.00;86.40;;;;;;4931481;29;20055;-73
2021/08/09 04:04:15;;;;;;;2.53;1.30;;;21.00;86.30;;;;;;4931912;29;20024;-73
2021/08/09 04:06:41;;;;;;;4.18;0.73;;;21.00;86.40;;;;;;4914310;29;20473;-73
2021/08/09 04:09:07;;;;;;;2.95;0.80;;;20.90;86.30;;;;;;4926437;29;20047;-73
2021/08/09 04:11:34;;;;;;;1.85;0.88;;;20.90;86.30;;;;;;4912494;29;20027;-73
2021/08/09 04:14:01;;;;;;;3.08;1.13;;;21.00;86.30;;;;;;4926747;28;20028;-73
2021/08/09 04:16:27;;;;;;;2.13;0.90;;;20.90;86.30;;;;;;4932145;29;20070;-74
2021/08/09 04:18:53;;;;;;;1.48;0.73;;;20.90;86.30;;;;;;4924013;29;20077;-73
2021/08/09 04:21:19;;;;;;;1.80;0.80;;;20.90;86.30;;;;;;4922710;29;20078;-73
2021/08/09 04:23:45;;;;;;;2.50;0.80;;;20.90;86.30;;;;;;4912476;29;20039;-73
2021/08/09 04:26:11;;;;;;;2.78;0.60;;;20.90;86.30;;;;;;4912672;29;20056;-73
2021/08/09 04:28:36;;;;;;;2.88;1.02;;;20.90;86.30;;;;;;4912951;29;20092;-73
2021/08/09 04:31:02;;;;;;;2.45;0.90;;;20.90;86.20;;;;;;4912297;29;20036;-74
2021/08/09 04:33:28;;;;;;;2.58;0.95;;;20.90;86.30;;;;;;4912783;29;20051;-74
2021/08/09 04:35:53;;;;;;;2.88;1.00;;;20.90;86.30;;;;;;4914453;29;20500;-73
2021/08/09 04:38:19;;;;;;;2.13;1.02;;;20.90;86.30;;;;;;4924473;29;20028;-73
2021/08/09 04:40:44;;;;;;;2.20;0.70;;;20.90;86.20;;;;;;4913131;29;20028;-73
2021/08/09 04:43:10;;;;;;;2.55;0.90;;;20.90;86.30;;;;;;4919474;28;20028;-74
2021/08/09 04:45:36;;;;;;;2.05;0.70;;;20.90;86.30;;;;;;4930888;29;20030;-74
2021/08/09 04:48:01;;;;;;;2.95;0.73;;;20.90;86.30;;;;;;4926284;28;20040;-75
2021/08/09 04:50:27;;;;;;;1.55;0.50;;;20.90;86.30;;;;;;4912566;29;20035;-75
2021/08/09 04:52:53;;;;;;;2.50;1.00;;;20.90;86.40;;;;;;4911918;29;20029;-75
2021/08/09 04:55:18;;;;;;;3.08;1.13;;;20.90;86.60;;;;;;4912156;29;20104;-76
2021/08/09 04:57:44;;;;;;;2.35;0.65;;;20.90;86.50;;;;;;4919000;29;20032;-75
2021/08/09 05:00:10;;;;;;;2.95;1.13;;;20.90;86.60;;;;;;4928930;29;20066;-75
2021/08/09 05:02:37;;;;;;;5.00;0.90;;;20.90;86.60;;;;;;4930639;29;20089;-76
2021/08/09 05:05:03;;;;;;;2.75;0.90;;;20.90;86.60;;;;;;4930174;28;20498;-75
2021/08/09 05:07:29;;;;;;;1.35;0.60;;;20.90;86.70;;;;;;4925646;29;20036;-76
2021/08/09 05:09:54;;;;;;;1.58;0.90;;;20.90;86.80;;;;;;4921936;28;20424;-78
2021/08/09 05:12:20;;;;;;;3.22;0.82;;;20.90;86.90;;;;;;4928863;29;20439;-75
2021/08/09 05:14:46;;;;;;;1.67;0.73;;;20.90;87.00;;;;;;4919726;28;20027;-76
2021/08/09 05:17:12;;;;;;;2.72;1.33;;;20.90;86.90;;;;;;4930164;29;20123;-77
2021/08/09 05:19:38;;;;;;;2.70;0.98;;;20.90;86.90;;;;;;4913848;29;20036;-77
2021/08/09 05:22:03;;;;;;;3.80;0.82;;;20.90;86.90;;;;;;4911719;29;20115;-75
2021/08/09 05:24:30;;;;;;;2.38;0.73;;;20.90;86.90;;;;;;4910967;29;20115;-75
2021/08/09 05:26:56;;;;;;;4.03;0.93;;;20.90;86.90;;;;;;4911339;29;20043;-74
2021/08/09 05:29:22;;;;;;;2.95;0.98;;;20.90;86.90;;;;;;4917550;29;20036;-75
2021/08/09 05:31:48;;;;;;;2.55;0.73;;;20.90;86.90;;;;;;4925223;29;20487;-75
2021/08/09 05:34:13;;;;;;;4.03;1.00;;;20.80;86.80;;;;;;4930707;29;20035;-75
2021/08/09 05:36:42;;;;;;;1.92;0.85;;;20.90;86.90;;;;;;4941956;28;20039;-76
2021/08/09 05:39:07;;;;;;;1.23;0.60;;;20.80;86.80;;;;;;4927461;29;20074;-77
2021/08/09 05:41:33;;;;;;;1.77;0.80;;;20.90;87.00;;;;;;4929799;28;20040;-75
2021/08/09 05:43:59;;;;;;;1.50;0.60;;;20.90;86.90;;;;;;4918162;29;20032;-75
2021/08/09 05:46:25;;;;;;;3.95;0.90;;;20.80;86.90;;;;;;4930313;29;20554;-76
2021/08/09 05:48:50;;;;;;;4.35;0.88;;;20.90;87.00;;;;;;4914043;28;20048;-76
2021/08/09 05:51:16;;;;;;;4.68;0.90;;;20.80;87.00;;;;;;4911424;29;20028;-75
2021/08/09 05:53:42;;;;;;;2.97;0.70;;;20.90;87.00;;;;;;4913216;29;20575;-76
2021/08/09 05:56:07;;;;;;;1.08;0.60;;;20.90;87.00;;;;;;4914426;29;20489;-75
2021/08/09 05:58:33;;;;;;;3.20;0.80;;;20.90;87.00;;;;;;4916694;29;20097;-76
2021/08/09 06:00:58;;;;;;;1.92;0.63;;;20.90;87.00;;;;;;4914848;28;20040;-78
2021/08/09 06:03:24;;;;;;;1.70;0.70;;;20.90;87.00;;;;;;4930627;29;20020;-77
2021/08/09 06:05:53;;;;;;;1.60;0.70;;;20.90;87.10;;;;;;4932483;29;20028;-79
2021/08/09 06:08:19;;;;;;;2.25;0.65;;;20.90;87.20;;;;;;4946733;28;20154;-75
2021/08/09 06:10:45;;;;;;;2.70;0.82;;;20.90;87.10;;;;;;4932063;29;20528;-77
2021/08/09 06:13:10;;;;;;;2.45;0.90;;;20.90;87.10;;;;;;4928111;28;20028;-76
2021/08/09 06:15:36;;;;;;;1.92;0.75;;;20.90;87.10;;;;;;4932545;28;20050;-74
2021/08/09 06:18:02;;;;;;;1.65;0.63;;;20.90;87.00;;;;;;4927518;29;20031;-78
2021/08/09 06:20:27;;;;;;;7.38;0.80;;;20.90;87.00;;;;;;4927690;29;20043;-76
2021/08/09 06:22:53;;;;;;;2.58;0.77;;;20.90;87.00;;;;;;4930187;29;20121;-73
2021/08/09 06:25:19;;;;;;;2.22;0.70;;;20.90;87.00;;;;;;4922427;28;20504;-78
2021/08/09 06:27:46;;;;;;;5.40;1.00;;;20.90;87.20;;;;;;4923675;29;20048;-76
2021/08/09 06:30:12;;;;;;;6.25;0.85;;;20.90;87.20;;;;;;4919458;29;20040;-76
2021/08/09 06:32:38;;;;;;;3.22;0.93;;;21.00;87.40;;;;;;4914038;29;20399;-79
2021/08/09 06:35:05;;;;;;;3.80;0.85;;;20.90;87.40;;;;;;4914138;28;20100;-78
2021/08/09 06:37:30;;;;;;;3.30;0.90;;;20.90;87.60;;;;;;4917428;28;20107;-78
2021/08/09 06:39:58;;;;;;;4.70;0.80;;;21.00;87.70;;;;;;4925282;28;20111;-78
2021/08/09 06:42:23;;;;;;;2.58;0.70;;;21.00;87.80;;;;;;4914647;29;20492;-77
2021/08/09 06:44:49;;;;;;;5.07;0.95;;;20.90;87.80;;;;;;4932190;29;20125;-78
2021/08/09 06:47:14;;;;;;;4.38;0.85;;;21.00;88.00;;;;;;4924571;29;20048;-76
2021/08/09 06:49:40;;;;;;;3.13;1.08;;;21.00;88.10;;;;;;4924724;28;20075;-76
2021/08/09 06:52:06;;;;;;;6.10;1.10;;;21.00;88.10;;;;;;4913974;29;20493;-76
2021/08/09 06:54:31;;;;;;;5.57;1.35;;;21.00;88.10;;;;;;4913662;29;20393;-75
2021/08/09 06:56:57;;;;;;;8.50;3.28;;;21.00;88.20;;;;;;4917146;29;20431;-76
2021/08/09 06:59:22;;;;;;;4.13;1.20;;;21.00;88.30;;;;;;4932243;29;20538;-76
2021/08/09 07:01:48;;;;;;;7.30;2.15;;;21.00;88.50;;;;;;4932550;29;20035;-74
2021/08/09 07:04:14;;;;;;;5.93;1.30;;;21.00;88.60;;;;;;4932759;29;20028;-74
2021/08/09 07:06:40;;;;;;;5.82;1.80;;;21.10;88.50;;;;;;4928590;28;20031;-75
2021/08/09 07:09:05;;;;;;;7.07;1.52;;;21.10;88.60;;;;;;4913466;28;20408;-75
2021/08/09 07:11:31;;;;;;;5.28;1.50;;;21.10;88.60;;;;;;4914170;29;20070;-74
2021/08/09 07:13:57;;;;;;;9.07;1.52;;;21.10;88.80;;;;;;4912726;29;20028;-74
2021/08/09 07:16:26;;;;;;;4.50;1.27;;;21.10;89.70;;;;;;4913654;29;20035;-74
2021/08/09 07:18:52;;;;;;;8.18;1.40;;;21.10;89.30;;;;;;4913509;29;20040;-75
2021/08/09 07:21:18;;;;;;;5.60;1.58;;;21.10;89.20;;;;;;4967864;28;20048;-79
2021/08/09 07:23:44;;;;;;;9.45;2.25;;;21.10;89.20;;;;;;4929997;29;20118;-75
2021/08/09 07:26:09;;;;;;;4.78;1.33;;;21.10;89.10;;;;;;4931308;28;20024;-74
2021/08/09 07:28:35;;;;;;;4.95;1.45;;;21.10;89.30;;;;;;4931059;28;20040;-73
2021/08/09 07:31:01;;;;;;;5.85;1.17;;;21.10;89.30;;;;;;4930181;29;20024;-74
2021/08/09 07:33:28;;;;;;;7.72;1.42;;;21.10;89.30;;;;;;4931955;29;20035;-73
2021/08/09 07:35:53;;;;;;;4.65;1.38;;;21.10;89.30;;;;;;4931776;28;20396;-73
2021/08/09 07:38:19;;;;;;;5.97;1.50;;;21.20;89.40;;;;;;4932341;29;20034;-74
2021/08/09 07:40:46;;;;;;;9.57;1.20;;;21.10;89.30;;;;;;4919871;29;20028;-73
2021/08/09 07:43:12;;;;;;;4.95;1.15;;;21.10;89.30;;;;;;4931563;29;20050;-73
2021/08/09 07:45:37;;;;;;;5.07;1.48;;;21.10;89.20;;;;;;4930482;29;20118;-73
2021/08/09 07:48:04;;;;;;;6.35;1.35;;;21.20;89.20;;;;;;4931634;29;20038;-72
2021/08/09 07:50:30;;;;;;;6.28;1.35;;;21.20;89.30;;;;;;4932096;29;20055;-73
2021/08/09 07:52:56;;;;;;;3.08;1.08;;;21.20;89.20;;;;;;4931646;29;20447;-74
2021/08/09 07:55:22;;;;;;;4.20;0.98;;;21.20;89.10;;;;;;4931804;28;20074;-73
2021/08/09 07:57:48;;;;;;;14.63;1.45;;;21.20;89.10;;;;;;4929868;29;20043;-73
2021/08/09 08:00:14;;;;;;;6.97;1.30;;;21.20;89.30;;;;;;4927077;29;20028;-73
2021/08/09 08:02:41;;;;;;;6.32;1.20;;;21.20;89.60;;;;;;4912701;28;20063;-73
2021/08/09 08:05:07;;;;;;;4.13;1.10;;;21.20;90.00;;;;;;4912925;29;20028;-73
2021/08/09 08:07:33;;;;;;;4.63;1.00;;;21.20;89.70;;;;;;4912488;28;20044;-73
2021/08/09 08:09:58;;;;;;;4.68;1.20;;;21.20;89.70;;;;;;4927338;29;20024;-72
2021/08/09 08:12:24;;;;;;;4.38;0.80;;;21.20;89.60;;;;;;4931890;29;20031;-73
2021/08/09 08:14:50;;;;;;;6.07;1.55;;;21.20;89.50;;;;;;4931145;29;20307;-72
2021/08/09 08:17:16;;;;;;;4.10;2.08;;;21.20;89.40;;;;;;4931146;29;20034;-73
2021/08/09 08:19:42;;;;;;;6.78;0.98;;;21.20;89.40;;;;;;4919000;29;20030;-72
2021/08/09 08:22:07;;;;;;;4.47;1.40;;;21.20;89.40;;;;;;4912368;29;20111;-76
2021/08/09 08:24:33;;;;;;;4.60;0.95;;;21.20;89.40;;;;;;4927573;29;20032;-73
2021/08/09 08:26:59;;;;;;;4.88;1.13;;;21.30;89.30;;;;;;4931540;29;20040;-72
2021/08/09 08:29:24;;;;;;;9.93;1.25;;;21.30;89.80;;;;;;4930853;28;20020;-73
2021/08/09 08:31:50;;;;;;;3.50;1.02;;;21.30;89.80;;;;;;4931143;29;20471;-74
2021/08/09 08:34:16;;;;;;;4.55;0.80;;;21.30;89.70;;;;;;4931079;29;20031;-74
2021/08/09 08:36:41;;;;;;;3.88;0.80;;;21.30;89.50;;;;;;4931145;28;20039;-76
2021/08/09 08:39:10;;;;;;;3.53;1.40;;;21.30;89.40;;;;;;4929841;29;20016;-75
2021/08/09 08:41:40;;;;;;;8.05;1.65;;;21.30;89.30;;;;;;4930470;29;20063;-78
2021/08/09 08:44:06;;;;;;;3.08;0.80;;;21.30;89.30;;;;;;4931511;29;20085;-78
2021/08/09 08:46:32;;;;;;;3.97;1.13;;;21.30;89.60;;;;;;4930824;28;20044;-75
2021/08/09 08:49:01;;;;;;;5.03;1.30;;;21.30;89.50;;;;;;4930600;29;20036;-82
2021/08/09 08:51:28;;;;;;;3.88;1.10;;;21.40;89.50;;;;;;4931516;29;20039;-83
2021/08/09 08:53:53;;;;;;;5.97;1.35;;;21.40;89.40;;;;;;4928815;28;20456;-77
2021/08/09 08:56:19;;;;;;;9.75;1.25;;;21.40;89.80;;;;;;4938280;28;20031;-81
2021/08/09 08:58:45;;;;;;;7.97;1.00;;;21.50;89.70;;;;;;4930660;29;20027;-80
2021/08/09 09:01:10;;;;;;;3.05;1.27;;;21.50;89.60;;;;;;4929668;28;20111;-77
2021/08/09 09:03:40;;;;;;;4.13;1.10;;;21.50;89.70;;;;;;4929048;29;20031;-78
2021/08/09 09:06:07;;;;;;;10.63;1.27;;;21.50;89.60;;;;;;4934747;28;20079;-79
2021/08/09 09:08:48;;;;;;;5.53;1.20;;;21.50;89.60;;;;;;4939810;28;20086;-81
2021/08/09 09:11:38;;;;;;;9.25;3.53;;;21.50;89.70;;;;;;4930446;28;20134;-76
2021/08/09 09:14:06;;;;;;;22.83;8.95;;;21.60;89.80;;;;;;4930198;29;20610;-77
2021/08/09 09:16:46;;;;;;;7.00;2.63;;;21.60;90.00;;;;;;4920336;28;20059;-74
2021/08/09 09:19:41;;;;;;;7.90;2.88;;;21.60;90.30;;;;;;4928831;29;20039;-77
2021/08/09 09:22:08;;;;;;;10.90;6.50;;;21.60;89.90;;;;;;4930560;29;20487;-76
2021/08/09 09:24:36;;;;;;;11.48;6.65;;;21.60;90.10;;;;;;4927179;29;20099;-79
2021/08/09 09:27:09;;;;;;;20.02;9.82;;;21.70;90.20;;;;;;4932619;28;20455;-80
2021/08/09 09:29:39;;;;;;;18.92;10.63;;;21.70;90.60;;;;;;4952776;28;20016;-82
2021/08/09 09:32:16;;;;;;;22.33;10.23;;;21.70;91.10;;;;;;4933161;28;20031;-80
2021/08/09 09:34:52;;;;;;;20.88;9.48;;;21.70;91.20;;;;;;4914655;29;20035;-80
2021/08/09 09:37:37;;;;;;;21.20;9.35;;;21.80;91.30;;;;;;4915003;29;20024;-74
2021/08/09 09:40:11;;;;;;;18.33;8.00;;;21.80;91.40;;;;;;4927421;28;20093;-74
2021/08/09 09:42:40;;;;;;;20.97;9.03;;;21.80;91.20;;;;;;4947753;28;20077;-74
2021/08/09 09:45:28;;;;;;;17.45;7.35;;;21.80;91.30;;;;;;4925539;29;20023;-75
2021/08/09 09:48:10;;;;;;;14.40;5.53;;;21.80;91.00;;;;;;4931107;29;20042;-74
2021/08/09 09:50:37;;;;;;;12.30;5.88;;;21.80;90.80;;;;;;4930783;29;20385;-74
2021/08/09 09:53:19;;;;;;;16.63;6.03;;;21.80;90.80;;;;;;4936331;29;20023;-79
2021/08/09 09:55:48;;;;;;;14.27;4.80;;;21.90;90.80;;;;;;4939266;29;20034;-76
2021/08/09 09:58:14;;;;;;;11.35;4.80;;;21.90;90.90;;;;;;4933622;28;20400;-77
2021/08/09 10:00:42;;;;;;;15.13;4.47;;;21.90;91.10;;;;;;4932876;28;20130;-78
2021/08/09 10:03:12;;;;;;;9.00;3.53;;;21.90;91.50;;;;;;4930722;28;20111;-76
2021/08/09 10:05:42;;;;;;;7.47;3.90;;;21.90;91.10;;;;;;4928907;29;20039;-77
2021/08/09 10:08:16;;;;;;;9.02;3.28;;;22.00;91.10;;;;;;4914649;28;20032;-78
2021/08/09 10:10:49;;;;;;;6.53;3.08;;;22.00;91.00;;;;;;4918897;28;20024;-76
2021/08/09 10:13:20;;;;;;;10.25;3.30;;;22.00;91.00;;;;;;4933444;29;20103;-76
2021/08/09 10:15:53;;;;;;;7.40;2.55;;;22.00;90.90;;;;;;4933156;29;20142;-77
2021/08/09 10:18:24;;;;;;;9.30;3.03;;;22.00;91.10;;;;;;4933563;29;20050;-76
2021/08/09 10:20:57;;;;;;;6.78;2.72;;;22.00;90.80;;;;;;4924438;28;20106;-76
2021/08/09 10:23:44;;;;;;;6.60;2.58;;;22.10;90.60;;;;;;4959389;28;20108;-76
2021/08/09 10:26:34;;;;;;;6.43;2.40;;;22.10;90.40;;;;;;4932434;29;20106;-76
2021/08/09 10:29:00;;;;;;;10.57;3.03;;;22.10;90.40;;;;;;4931390;29;20046;-77
2021/08/09 10:31:30;;;;;;;5.90;2.70;;;22.10;90.40;;;;;;4933799;29;20435;-78
2021/08/09 10:33:57;;;;;;;4.80;2.13;;;22.10;90.40;;;;;;4930316;28;20119;-77
2021/08/09 10:36:23;;;;;;;6.97;2.25;;;22.10;90.20;;;;;;4926410;29;20143;-76
2021/08/09 10:38:52;;;;;;;6.57;2.80;;;22.20;90.20;;;;;;4931886;29;20024;-76
2021/08/09 10:41:35;;;;;;;9.45;2.03;;;22.10;90.10;;;;;;4931664;29;20082;-75
2021/08/09 10:44:07;;;;;;;6.00;2.20;;;22.20;90.10;;;;;;4928081;29;20420;-76
2021/08/09 10:46:37;;;;;;;5.13;2.05;;;22.20;90.10;;;;;;4926141;29;20047;-77
2021/08/09 10:49:07;;;;;;;5.43;2.67;;;22.30;89.90;;;;;;4929638;28;20094;-77
2021/08/09 10:51:50;;;;;;;3.60;2.00;;;22.30;89.70;;;;;;4931954;29;20032;-74
2021/08/09 10:54:43;;;;;;;6.05;2.67;;;22.40;89.30;;;;;;4928951;28;20038;-75
2021/08/09 10:57:09;;;;;;;6.28;1.83;;;22.50;89.00;;;;;;4929528;29;20058;-73
2021/08/09 10:59:40;;;;;;;6.80;1.73;;;22.40;88.80;;;;;;4925542;29;20028;-74
2021/08/09 11:02:18;;;;;;;5.03;1.30;;;22.30;88.80;;;;;;4931404;29;20369;-73
2021/08/09 11:04:44;;;;;;;4.45;1.60;;;22.30;89.10;;;;;;4931719;29;20024;-74
2021/08/09 11:07:17;;;;;;;3.58;1.63;;;22.30;89.20;;;;;;4931750;29;20564;-75
2021/08/09 11:09:47;;;;;;;4.00;1.20;;;22.20;88.80;;;;;;4931670;29;20110;-77
2021/08/09 11:12:26;;;;;;;6.70;2.00;;;22.20;88.90;;;;;;4931877;29;20116;-75
2021/08/09 11:15:02;;;;;;;7.03;2.00;;;22.20;89.10;;;;;;4951124;28;20027;-75
2021/08/09 11:17:43;;;;;;;5.57;1.77;;;22.20;89.10;;;;;;4950801;29;20129;-76
2021/08/09 11:20:16;;;;;;;3.88;1.88;;;22.20;89.20;;;;;;4935271;29;20039;-75
2021/08/09 11:22:45;;;;;;;4.22;2.00;;;22.20;89.40;;;;;;4933974;29;20032;-77
2021/08/09 11:25:33;;;;;;;7.40;1.77;;;22.30;89.40;;;;;;4935180;29;20052;-75
2021/08/09 11:28:06;;;;;;;4.43;1.67;;;22.30;89.60;;;;;;4931220;29;20040;-74
2021/08/09 11:30:37;;;;;;;6.25;1.98;;;22.20;89.70;;;;;;4927395;29;20048;-79
2021/08/09 11:33:04;;;;;;;6.68;1.90;;;22.20;90.20;;;;;;4931323;29;20082;-75
2021/08/09 11:35:30;;;;;;;5.95;1.88;;;22.20;90.50;;;;;;4931272;28;20142;-78
2021/08/09 11:38:03;;;;;;;6.15;2.13;;;22.20;90.60;;;;;;4931711;28;20035;-77
2021/08/09 11:40:39;;;;;;;8.40;2.08;;;22.20;90.60;;;;;;4931700;29;20024;-75
2021/08/09 11:43:06;;;;;;;3.60;1.55;;;22.20;90.60;;;;;;4931237;28;20030;-76
2021/08/09 11:45:31;;;;;;;6.07;2.10;;;22.20;90.60;;;;;;4930712;29;20170;-76
2021/08/09 11:47:57;;;;;;;5.57;1.77;;;22.20;90.80;;;;;;4930696;28;20582;-75
2021/08/09 11:50:23;;;;;;;5.43;1.60;;;22.20;90.80;;;;;;4930079;29;20480;-76
2021/08/09 11:52:50;;;;;;;5.15;1.95;;;22.20;90.70;;;;;;4929986;29;20119;-75
2021/08/09 11:55:22;;;;;;;4.47;1.60;;;22.30;90.70;;;;;;4926325;29;20031;-75
2021/08/09 11:57:49;;;;;;;6.95;1.88;;;22.40;90.60;;;;;;4929575;29;20024;-74
2021/08/09 12:00:15;;;;;;;7.97;1.90;;;22.40;90.50;;;;;;4930432;29;20518;-75
2021/08/09 12:03:05;;;;;;;4.70;1.50;;;22.50;90.50;;;;;;4931521;29;20030;-75
2021/08/09 12:05:31;;;;;;;3.90;2.15;;;22.50;90.40;;;;;;4930948;29;20035;-81
2021/08/09 12:08:06;;;;;;;3.72;1.77;;;22.60;90.50;;;;;;4931992;28;20031;-75
2021/08/09 14:05:49;;;;;;;1.60;0.85;;;;;;;;;;5088513;28;20378;-73
2021/08/09 14:08:14;;;;;;;1.70;0.90;;;22.70;91.40;;;;;;5088510;28;20024;-73
2021/08/09 14:10:40;;;;;;;1.52;0.77;;;22.70;91.60;;;;;;5086962;28;20463;-74
2021/08/09 14:13:06;;;;;;;2.63;1.35;;;22.80;91.50;;;;;;5088454;28;20492;-77
2021/08/09 14:15:33;;;;;;;3.58;1.13;;;22.80;91.40;;;;;;5088270;28;20031;-74
2021/08/09 14:18:00;;;;;;;2.03;0.88;;;22.80;91.40;;;;;;5086814;28;20058;-75
2021/08/09 14:20:25;;;;;;;2.95;1.30;;;22.80;91.40;;;;;;5087799;28;20031;-71
2021/08/09 14:22:51;;;;;;;5.28;1.20;;;22.80;91.50;;;;;;5087523;28;20028;-73
2021/08/09 14:25:17;;;;;;;4.47;1.10;;;22.80;91.50;;;;;;5088058;28;20033;-73
2021/08/09 14:27:42;;;;;;;2.35;1.05;;;22.80;91.60;;;;;;5088120;28;20025;-73
2021/08/09 14:30:08;;;;;;;9.38;1.50;;;22.80;91.60;;;;;;5087654;28;20028;-77
2021/08/09 14:32:34;;;;;;;4.20;3.38;;;22.80;91.60;;;;;;5087587;28;20381;-77
2021/08/09 14:35:01;;;;;;;5.22;4.53;;;22.90;91.70;;;;;;5087850;28;20034;-72
2021/08/09 14:37:26;;;;;;;6.93;5.72;;;22.90;91.80;;;;;;5088058;28;20154;-73
2021/08/09 14:39:52;;;;;;;5.05;4.55;;;23.00;91.80;;;;;;5088116;28;20107;-73
2021/08/09 14:42:17;;;;;;;6.70;4.07;;;23.00;92.00;;;;;;5089562;28;20038;-73
2021/08/09 14:44:43;;;;;;;11.48;6.45;;;23.00;91.90;;;;;;5088331;28;20036;-73
2021/08/09 14:47:09;;;;;;;8.30;4.20;;;23.00;92.00;;;;;;5084245;28;20050;-73